createdAt,value
2018-03-27T00:02:18.638Z,16.97
2018-03-27T00:04:46.145Z,17.40
2018-03-27T00:07:13.700Z,17.10
2018-03-27T00:09:41.195Z,17.20
2018-03-27T00:12:08.707Z,17.13
2018-03-27T00:14:36.170Z,16.73
2018-03-27T00:17:03.658Z,15.83
2018-03-27T00:19:31.176Z,17.93
2018-03-27T00:21:58.667Z,18.03
2018-03-27T00:24:26.195Z,17.60
2018-03-27T00:27:00.424Z,18.30
2018-03-27T00:29:39.703Z,17.30
2018-03-27T00:32:19.842Z,18.10
2018-03-27T00:34:59.340Z,17.43
2018-03-27T00:37:38.863Z,17.60
2018-03-27T00:40:18.294Z,17.67
2018-03-27T00:42:51.340Z,17.70
2018-03-27T00:45:18.843Z,17.93
2018-03-27T00:47:46.321Z,18.57
2018-03-27T00:50:13.790Z,18.33
2018-03-27T00:52:41.312Z,19.17
2018-03-27T00:55:08.786Z,17.60
2018-03-27T00:57:36.326Z,18.03
2018-03-27T01:00:03.793Z,18.53
2018-03-27T01:02:31.626Z,17.80
2018-03-27T01:05:05.579Z,18.53
2018-03-27T01:07:33.530Z,18.60
2018-03-27T01:10:01.006Z,18.20
2018-03-27T01:12:28.475Z,18.77
2018-03-27T01:14:55.960Z,18.13
2018-03-27T01:17:24.190Z,18.73
2018-03-27T01:19:51.687Z,19.80
2018-03-27T01:22:19.922Z,19.30
2018-03-27T01:24:47.422Z,20.00
2018-03-27T01:27:15.666Z,20.50
2018-03-27T01:29:43.138Z,19.07
2018-03-27T01:32:11.393Z,19.17
2018-03-27T01:34:38.870Z,20.03
2018-03-27T01:37:06.366Z,20.90
2018-03-27T01:39:33.850Z,22.30
2018-03-27T01:42:01.333Z,20.20
2018-03-27T01:44:28.841Z,20.13
2018-03-27T01:46:56.310Z,21.10
2018-03-27T01:49:23.849Z,21.20
2018-03-27T01:51:51.317Z,20.00
2018-03-27T01:54:18.813Z,20.00
2018-03-27T01:56:46.279Z,18.37
2018-03-27T01:59:14.515Z,19.13
2018-03-27T02:01:42.020Z,19.50
2018-03-27T02:04:10.256Z,19.20
2018-03-27T02:06:37.745Z,18.60
2018-03-27T02:09:06.056Z,18.73
2018-03-27T02:11:39.178Z,18.73
2018-03-27T02:14:12.465Z,18.43
2018-03-27T02:16:45.827Z,20.10
2018-03-27T02:19:18.915Z,18.70
2018-03-27T02:21:45.926Z,19.97
2018-03-27T02:24:14.758Z,19.40
2018-03-27T02:26:42.236Z,21.20
2018-03-27T02:29:09.722Z,22.20
2018-03-27T02:31:37.187Z,23.37
2018-03-27T02:34:05.438Z,22.60
2018-03-27T02:36:33.690Z,24.37
2018-03-27T02:39:01.180Z,23.70
2018-03-27T02:41:29.422Z,23.23
2018-03-27T02:43:56.910Z,21.43
2018-03-27T02:46:25.148Z,21.63
2018-03-27T02:48:52.635Z,21.13
2018-03-27T02:51:20.113Z,19.90
2018-03-27T02:53:48.350Z,21.07
2018-03-27T02:56:15.871Z,20.87
2018-03-27T02:58:43.360Z,20.17
2018-03-27T03:01:10.854Z,20.97
2018-03-27T03:03:39.094Z,20.90
2018-03-27T03:06:06.585Z,23.13
2018-03-27T03:08:34.071Z,20.77
2018-03-27T03:11:01.566Z,20.53
2018-03-27T03:13:29.038Z,22.63
2018-03-27T03:15:56.507Z,19.67
2018-03-27T03:18:24.761Z,21.20
2018-03-27T03:20:52.227Z,19.80
2018-03-27T03:23:20.479Z,22.03
2018-03-27T03:25:47.998Z,21.87
2018-03-27T03:28:15.517Z,22.07
2018-03-27T03:30:42.977Z,22.73
2018-03-27T03:33:11.242Z,20.73
2018-03-27T03:35:39.486Z,22.50
2018-03-27T03:38:06.974Z,21.23
2018-03-27T03:40:34.442Z,21.37
2018-03-27T03:43:02.677Z,24.67
2018-03-27T03:45:30.166Z,23.50
2018-03-27T03:47:58.406Z,24.17
2018-03-27T03:50:25.897Z,24.87
2018-03-27T03:52:54.136Z,21.97
2018-03-27T03:55:21.618Z,22.90
2018-03-27T03:57:49.090Z,23.57
2018-03-27T04:00:17.350Z,23.17
2018-03-27T04:02:45.582Z,22.87
2018-03-27T04:05:13.078Z,24.63
2018-03-27T04:07:40.569Z,24.40
2018-03-27T04:10:08.044Z,25.23
2018-03-27T04:12:35.530Z,24.27
2018-03-27T04:15:03.006Z,24.10
2018-03-27T04:17:31.270Z,22.10
2018-03-27T04:19:58.746Z,21.97
2018-03-27T04:22:27.006Z,21.97
2018-03-27T04:24:54.514Z,23.27
2018-03-27T04:27:22.002Z,21.10
2018-03-27T04:29:49.479Z,20.93
2018-03-27T04:32:16.962Z,22.67
2018-03-27T04:34:44.443Z,21.23
2018-03-27T04:37:11.934Z,22.17
2018-03-27T04:39:40.651Z,20.43
2018-03-27T04:42:08.232Z,21.67
2018-03-27T04:44:35.730Z,20.90
2018-03-27T04:47:03.223Z,18.20
2018-03-27T04:49:31.470Z,19.43
2018-03-27T04:51:58.954Z,19.60
2018-03-27T04:54:26.454Z,18.43
2018-03-27T04:56:53.922Z,16.47
2018-03-27T04:59:21.414Z,16.10
2018-03-27T05:01:49.694Z,15.93
2018-03-27T05:04:17.946Z,14.87
2018-03-27T05:06:46.227Z,15.10
2018-03-27T05:09:14.559Z,15.10
2018-03-27T05:11:42.031Z,13.83
2018-03-27T05:14:09.498Z,13.83
2018-03-27T05:16:36.987Z,14.10
2018-03-27T05:19:05.232Z,14.40
2018-03-27T05:21:32.720Z,14.00
2018-03-27T05:24:00.195Z,13.03
2018-03-27T05:26:27.742Z,12.50
2018-03-27T05:28:55.170Z,12.17
2018-03-27T05:31:23.425Z,11.10
2018-03-27T05:33:50.912Z,11.27
2018-03-27T05:36:19.162Z,10.30
2018-03-27T05:38:46.637Z,10.17
2018-03-27T05:41:14.870Z,10.57
2018-03-27T05:43:42.367Z,10.73
2018-03-27T05:46:10.598Z,10.30
2018-03-27T05:48:38.101Z,9.30
2018-03-27T05:51:06.342Z,9.47
2018-03-27T05:53:33.831Z,8.77
2018-03-27T05:56:02.136Z,8.97
2018-03-27T05:58:29.573Z,9.00
2018-03-27T06:00:57.037Z,7.83
2018-03-27T06:03:24.535Z,8.50
2018-03-27T06:05:51.998Z,7.60
2018-03-27T06:08:19.497Z,8.70
2018-03-27T06:10:47.746Z,7.80
2018-03-27T06:13:15.209Z,7.63
2018-03-27T06:15:42.690Z,7.60
2018-03-27T06:18:10.159Z,7.90
2018-03-27T06:20:37.640Z,7.13
2018-03-27T06:23:05.102Z,7.07
2018-03-27T06:25:32.588Z,6.67
2018-03-27T06:28:00.822Z,6.23
2018-03-27T06:30:28.330Z,6.77
2018-03-27T06:32:56.396Z,6.50
2018-03-27T06:35:23.900Z,6.10
2018-03-27T06:37:52.150Z,6.60
2018-03-27T06:40:19.607Z,6.30
2018-03-27T06:42:47.850Z,6.00
2018-03-27T06:45:16.123Z,5.67
2018-03-27T06:47:43.654Z,6.43
2018-03-27T06:50:11.145Z,6.17
2018-03-27T06:52:38.627Z,5.87
2018-03-27T06:55:06.859Z,5.97
2018-03-27T06:57:34.326Z,6.40
2018-03-27T07:00:01.815Z,6.20
2018-03-27T07:02:29.282Z,5.77
2018-03-27T07:04:57.524Z,6.17
2018-03-27T07:07:25.776Z,6.60
2018-03-27T07:09:53.260Z,6.27
2018-03-27T07:12:20.726Z,7.33
2018-03-27T07:14:48.975Z,7.00
2018-03-27T07:17:16.491Z,7.20
2018-03-27T07:19:44.314Z,6.83
2018-03-27T07:22:11.771Z,7.17
2018-03-27T07:24:39.234Z,7.40
2018-03-27T07:27:07.482Z,7.63
2018-03-27T07:29:34.949Z,6.80
2018-03-27T07:32:03.218Z,6.10
2018-03-27T07:34:32.194Z,6.10
2018-03-27T07:36:59.674Z,5.40
2018-03-27T07:39:27.135Z,5.40
2018-03-27T07:41:54.631Z,5.00
2018-03-27T07:44:22.090Z,5.43
2018-03-27T07:46:49.553Z,5.27
2018-03-27T07:49:17.037Z,5.80
2018-03-27T07:51:44.498Z,5.20
2018-03-27T07:54:11.970Z,5.00
2018-03-27T07:56:39.459Z,5.20
2018-03-27T07:59:06.938Z,4.97
2018-03-27T08:01:34.408Z,5.20
2018-03-27T08:04:01.880Z,5.30
2018-03-27T08:06:29.345Z,4.40
2018-03-27T08:08:56.827Z,5.07
2018-03-27T08:11:24.303Z,4.27
2018-03-27T08:13:51.773Z,3.63
2018-03-27T08:16:19.254Z,3.77
2018-03-27T08:18:46.715Z,3.97
2018-03-27T08:21:14.191Z,3.90
2018-03-27T08:23:42.414Z,3.93
2018-03-27T08:26:10.024Z,4.00
2018-03-27T08:28:38.258Z,4.13
2018-03-27T08:31:06.031Z,4.20
2018-03-27T08:33:33.494Z,3.47
2018-03-27T08:36:00.951Z,3.60
2018-03-27T08:38:28.430Z,3.90
2018-03-27T08:40:56.674Z,3.63
2018-03-27T08:43:24.174Z,3.43
2018-03-27T08:45:52.384Z,3.07
2018-03-27T08:48:19.858Z,3.13
2018-03-27T08:50:47.319Z,3.10
2018-03-27T08:53:15.562Z,3.60
2018-03-27T08:55:43.030Z,3.47
2018-03-27T08:58:10.490Z,3.47
2018-03-27T09:00:38.023Z,3.80
2018-03-27T09:03:05.464Z,3.77
2018-03-27T09:05:32.942Z,3.93
2018-03-27T09:08:00.410Z,4.43
2018-03-27T09:10:27.890Z,5.00
2018-03-27T09:12:56.121Z,4.20
2018-03-27T09:15:23.626Z,4.50
2018-03-27T09:17:51.858Z,5.03
2018-03-27T09:20:19.343Z,4.87
2018-03-27T09:22:47.582Z,5.80
2018-03-27T09:25:15.043Z,6.07
2018-03-27T09:27:42.534Z,6.10
2018-03-27T09:30:10.770Z,5.90
2018-03-27T09:32:38.304Z,6.13
2018-03-27T09:35:05.766Z,7.00
2018-03-27T09:37:33.259Z,6.70
2018-03-27T09:40:00.775Z,6.83
2018-03-27T09:42:28.258Z,7.67
2018-03-27T09:44:55.738Z,7.50
2018-03-27T09:47:23.226Z,7.60
2018-03-27T09:49:50.699Z,7.33
2018-03-27T09:52:18.554Z,7.77
2018-03-27T09:54:46.032Z,7.63
2018-03-27T09:57:13.497Z,8.70
2018-03-27T09:59:40.981Z,7.87
2018-03-27T10:02:08.449Z,7.87
2018-03-27T10:04:36.716Z,7.47
2018-03-27T10:07:04.950Z,7.20
2018-03-27T10:09:32.453Z,7.57
2018-03-27T10:12:00.683Z,8.13
2018-03-27T10:14:28.150Z,8.97
2018-03-27T10:16:55.634Z,8.67
2018-03-27T10:19:23.866Z,9.00
2018-03-27T10:21:51.404Z,9.33
2018-03-27T10:24:18.878Z,9.10
2018-03-27T10:26:46.358Z,9.13
2018-03-27T10:29:13.843Z,9.40
2018-03-27T10:31:42.074Z,9.73
2018-03-27T10:34:09.570Z,9.13
2018-03-27T10:36:37.815Z,10.87
2018-03-27T10:39:05.329Z,9.43
2018-03-27T10:41:32.822Z,13.67
2018-03-27T10:44:00.288Z,12.30
2018-03-27T10:46:27.790Z,14.10
2018-03-27T10:48:55.263Z,13.20
2018-03-27T10:51:22.748Z,13.53
2018-03-27T10:53:50.257Z,13.40
2018-03-27T10:56:17.734Z,11.87
2018-03-27T10:58:45.235Z,13.50
2018-03-27T11:01:12.710Z,12.73
2018-03-27T11:03:41.017Z,12.83
2018-03-27T11:06:08.454Z,13.30
2018-03-27T11:08:35.930Z,13.10
2018-03-27T11:11:04.194Z,13.30
2018-03-27T11:13:31.706Z,13.50
2018-03-27T11:15:59.172Z,13.50
2018-03-27T11:18:26.678Z,13.33
2018-03-27T11:20:54.150Z,14.00
2018-03-27T11:23:21.690Z,13.93
2018-03-27T11:25:49.138Z,12.80
2018-03-27T11:28:16.634Z,13.90
2018-03-27T11:30:44.130Z,13.63
2018-03-27T11:33:11.631Z,13.73
2018-03-27T11:35:39.143Z,12.87
2018-03-27T11:38:07.403Z,12.00
2018-03-27T11:40:35.656Z,12.43
2018-03-27T11:43:03.150Z,12.27
2018-03-27T11:45:30.619Z,12.67
2018-03-27T11:47:58.093Z,13.30
2018-03-27T11:50:25.582Z,13.80
2018-03-27T11:52:53.054Z,13.83
2018-03-27T11:55:20.558Z,12.97
2018-03-27T11:57:48.040Z,13.43
2018-03-27T12:00:15.545Z,14.53
2018-03-27T12:02:43.782Z,12.13
2018-03-27T12:05:12.046Z,13.00
2018-03-27T12:07:39.529Z,11.83
2018-03-27T12:10:07.796Z,12.27
2018-03-27T12:12:35.272Z,11.97
2018-03-27T12:15:03.530Z,12.43
2018-03-27T12:17:31.006Z,11.93
2018-03-27T12:19:59.260Z,11.33
2018-03-27T12:22:26.748Z,11.53
2018-03-27T12:24:54.330Z,11.07
2018-03-27T12:27:21.826Z,12.00
2018-03-27T12:29:49.346Z,12.33
2018-03-27T12:32:16.835Z,12.30
2018-03-27T12:34:44.312Z,12.73
2018-03-27T12:37:12.573Z,12.10
2018-03-27T12:39:40.050Z,13.23
2018-03-27T12:42:08.307Z,13.33
2018-03-27T12:44:37.287Z,13.30
2018-03-27T12:47:04.773Z,15.40
2018-03-27T12:49:33.017Z,15.03
2018-03-27T12:52:00.530Z,16.10
2018-03-27T12:54:28.059Z,16.50
2018-03-27T12:56:55.668Z,15.20
2018-03-27T12:59:23.190Z,16.70
2018-03-27T13:01:50.681Z,15.20
2018-03-27T13:04:18.180Z,12.80
2018-03-27T13:06:46.469Z,10.33
2018-03-27T13:09:13.966Z,8.77
2018-03-27T13:11:41.438Z,9.03
2018-03-27T13:14:08.924Z,8.87
2018-03-27T13:16:37.162Z,8.47
2018-03-27T13:19:04.653Z,9.87
2018-03-27T13:21:32.894Z,9.73
2018-03-27T13:24:00.393Z,10.67
2018-03-27T13:26:27.870Z,9.70
2018-03-27T13:28:55.381Z,10.20
2018-03-27T13:31:22.875Z,11.30
2018-03-27T13:33:50.363Z,10.63
2018-03-27T13:36:17.851Z,10.33
2018-03-27T13:38:46.852Z,11.70
2018-03-27T13:41:14.321Z,11.57
2018-03-27T13:43:42.595Z,11.90
2018-03-27T13:46:10.059Z,12.73
2018-03-27T13:48:38.315Z,11.70
2018-03-27T13:51:06.620Z,11.23
2018-03-27T13:53:34.097Z,12.43
2018-03-27T13:56:01.622Z,9.07
2018-03-27T13:58:29.093Z,11.17
2018-03-27T14:00:56.614Z,11.60
2018-03-27T14:03:24.853Z,12.23
2018-03-27T14:05:52.363Z,7.77
2018-03-27T14:08:20.598Z,7.23
2018-03-27T14:10:48.082Z,6.77
2018-03-27T14:13:16.330Z,6.87
2018-03-27T14:15:43.806Z,7.07
2018-03-27T14:18:11.290Z,6.03
2018-03-27T14:20:38.780Z,5.80
2018-03-27T14:23:06.238Z,6.30
2018-03-27T14:25:33.714Z,6.27
2018-03-27T14:28:01.180Z,6.47
2018-03-27T14:30:29.484Z,7.33
2018-03-27T14:32:56.963Z,6.57
2018-03-27T14:35:24.443Z,6.07
2018-03-27T14:37:51.971Z,6.70
2018-03-27T14:40:21.093Z,6.90
2018-03-27T14:42:48.596Z,5.80
2018-03-27T14:45:16.074Z,4.60
2018-03-27T14:47:43.570Z,4.50
2018-03-27T14:50:11.027Z,4.60
2018-03-27T14:52:38.515Z,5.20
2018-03-27T14:55:06.766Z,5.40
2018-03-27T14:57:34.235Z,5.17
2018-03-27T15:00:01.744Z,3.90
2018-03-27T15:02:29.253Z,4.20
2018-03-27T15:04:57.575Z,5.13
2018-03-27T15:07:25.039Z,3.77
2018-03-27T15:09:52.534Z,4.20
2018-03-27T15:12:20.803Z,4.50
2018-03-27T15:14:48.278Z,4.10
2018-03-27T15:17:16.541Z,4.30
2018-03-27T15:19:44.793Z,4.00
2018-03-27T15:22:12.265Z,4.77
2018-03-27T15:24:39.758Z,4.90
2018-03-27T15:27:07.218Z,4.97
2018-03-27T15:29:34.715Z,5.93
2018-03-27T15:32:02.210Z,5.93
2018-03-27T15:34:30.438Z,4.57
2018-03-27T15:36:57.930Z,6.43
2018-03-27T15:39:25.421Z,5.73
2018-03-27T15:41:53.743Z,6.10
2018-03-27T15:44:21.206Z,6.83
2018-03-27T15:46:48.707Z,5.40
2018-03-27T15:49:16.966Z,5.47
2018-03-27T15:51:45.218Z,5.43
2018-03-27T15:54:12.728Z,5.67
2018-03-27T15:56:40.190Z,5.67
2018-03-27T15:59:07.664Z,5.53
2018-03-27T16:01:35.150Z,5.23
2018-03-27T16:04:03.385Z,5.73
2018-03-27T16:06:30.886Z,5.83
2018-03-27T16:08:58.364Z,5.30
2018-03-27T16:11:27.651Z,5.63
2018-03-27T16:13:55.185Z,5.90
2018-03-27T16:16:22.925Z,5.33
2018-03-27T16:18:50.462Z,5.27
2018-03-27T16:21:18.073Z,5.60
2018-03-27T16:23:45.550Z,4.80
2018-03-27T16:26:13.811Z,4.83
2018-03-27T16:28:42.223Z,5.00
2018-03-27T16:31:10.219Z,4.33
2018-03-27T16:33:37.775Z,4.03
2018-03-27T16:36:05.255Z,3.57
2018-03-27T16:38:34.038Z,3.30
2018-03-27T16:41:02.589Z,2.80
2018-03-27T16:43:31.195Z,3.13
2018-03-27T16:45:58.863Z,3.47
2018-03-27T16:48:26.349Z,3.53
2018-03-27T16:50:54.611Z,3.07
2018-03-27T16:53:22.183Z,3.50
2018-03-27T16:55:49.688Z,3.50
2018-03-27T16:58:17.182Z,2.97
2018-03-27T17:00:44.895Z,3.33
2018-03-27T17:03:12.694Z,3.43
2018-03-27T17:05:40.376Z,3.87
2018-03-27T17:08:08.160Z,3.23
2018-03-27T17:10:35.638Z,3.90
2018-03-27T17:13:03.125Z,3.50
2018-03-27T17:15:32.437Z,2.60
2018-03-27T17:18:00.167Z,2.67
2018-03-27T17:20:27.647Z,3.60
2018-03-27T17:22:55.121Z,3.27
2018-03-27T17:25:22.582Z,3.00
2018-03-27T17:27:50.066Z,2.90
2018-03-27T17:30:17.548Z,3.10
2018-03-27T17:32:45.011Z,3.13
2018-03-27T17:35:12.493Z,2.27
2018-03-27T17:37:39.956Z,2.43
2018-03-27T17:40:07.479Z,2.20
2018-03-27T17:42:34.982Z,2.40
2018-03-27T17:45:02.559Z,2.40
2018-03-27T17:47:31.403Z,2.00
2018-03-27T17:49:59.279Z,1.90
2018-03-27T17:52:27.076Z,1.57
2018-03-27T17:54:55.243Z,1.63
2018-03-27T17:57:23.255Z,1.33
2018-03-27T17:59:51.598Z,1.60
2018-03-27T18:02:19.473Z,1.60
2018-03-27T18:04:48.093Z,1.60
2018-03-27T18:07:16.858Z,1.40
2018-03-27T18:09:44.845Z,1.70
2018-03-27T18:12:12.391Z,1.40
2018-03-27T18:14:40.098Z,1.70
2018-03-27T18:17:08.405Z,1.80
2018-03-27T18:19:36.670Z,2.00
2018-03-27T18:22:04.846Z,1.90
2018-03-27T18:24:32.670Z,1.77
2018-03-27T18:27:01.079Z,1.73
2018-03-27T18:29:29.565Z,1.60
2018-03-27T18:32:01.480Z,1.80
2018-03-27T18:34:29.784Z,1.27
2018-03-27T18:36:58.757Z,1.53
2018-03-27T18:39:26.952Z,1.97
2018-03-27T18:41:54.521Z,2.00
2018-03-27T18:44:21.996Z,2.37
2018-03-27T18:46:49.541Z,2.10
2018-03-27T18:49:17.020Z,2.00
2018-03-27T18:51:44.519Z,2.10
2018-03-27T18:54:12.190Z,2.40
2018-03-27T18:56:39.869Z,3.03
2018-03-27T18:59:07.688Z,2.20
2018-03-27T19:01:35.174Z,2.03
2018-03-27T19:04:03.351Z,2.40
2018-03-27T19:06:31.943Z,1.80
2018-03-27T19:08:59.450Z,2.00
2018-03-27T19:11:27.675Z,1.90
2018-03-27T19:13:55.158Z,1.90
2018-03-27T19:16:22.629Z,1.90
2018-03-27T19:18:50.204Z,1.80
2018-03-27T19:21:17.684Z,1.37
2018-03-27T19:23:45.158Z,1.27
2018-03-27T19:26:13.388Z,1.47
2018-03-27T19:28:40.866Z,1.00
2018-03-27T19:31:08.326Z,1.40
2018-03-27T19:33:35.818Z,1.50
2018-03-27T19:36:04.050Z,1.63
2018-03-27T19:38:31.534Z,1.43
2018-03-27T19:40:58.995Z,1.37
2018-03-27T19:43:26.458Z,1.17
2018-03-27T19:45:53.975Z,1.50
2018-03-27T19:48:21.529Z,3.40
2018-03-27T19:50:49.014Z,2.57
2018-03-27T19:53:16.544Z,2.17
2018-03-27T19:55:44.018Z,1.47
2018-03-27T19:58:11.573Z,1.70
2018-03-27T20:00:39.061Z,2.33
2018-03-27T20:03:06.587Z,1.70
2018-03-27T20:05:34.061Z,1.97
2018-03-27T20:08:01.600Z,1.97
2018-03-27T20:10:29.078Z,1.70
2018-03-27T20:12:56.547Z,2.00
2018-03-27T20:15:24.044Z,3.33
2018-03-27T20:17:52.269Z,2.93
2018-03-27T20:20:19.734Z,2.10
2018-03-27T20:22:47.251Z,2.57
2018-03-27T20:25:14.710Z,2.43
2018-03-27T20:27:42.188Z,2.40
2018-03-27T20:30:09.646Z,2.43
2018-03-27T20:32:37.154Z,2.90
2018-03-27T20:35:05.381Z,2.70
2018-03-27T20:37:32.864Z,2.87
2018-03-27T20:40:00.322Z,3.23
2018-03-27T20:42:27.809Z,2.97
2018-03-27T20:44:55.269Z,3.77
2018-03-27T20:47:22.746Z,3.97
2018-03-27T20:49:50.219Z,4.57
2018-03-27T20:52:17.698Z,4.90
2018-03-27T20:54:45.172Z,4.27
2018-03-27T20:57:12.646Z,4.87
2018-03-27T20:59:41.937Z,5.70
2018-03-27T21:02:09.399Z,5.60
2018-03-27T21:04:36.881Z,5.97
2018-03-27T21:07:04.353Z,6.10
2018-03-27T21:09:31.833Z,5.87
2018-03-27T21:11:59.291Z,6.30
2018-03-27T21:14:26.769Z,6.43
2018-03-27T21:16:54.259Z,6.87
2018-03-27T21:19:21.758Z,7.30
2018-03-27T21:21:49.221Z,7.37
2018-03-27T21:24:16.706Z,8.23
2018-03-27T21:26:44.178Z,7.90
2018-03-27T21:29:11.658Z,7.93
2018-03-27T21:31:39.898Z,8.40
2018-03-27T21:34:07.416Z,8.50
2018-03-27T21:36:34.883Z,8.53
2018-03-27T21:39:02.375Z,9.27
2018-03-27T21:41:29.840Z,9.23
2018-03-27T21:43:57.306Z,9.20
2018-03-27T21:46:24.787Z,9.73
2018-03-27T21:48:52.281Z,10.50
2018-03-27T21:51:19.772Z,9.53
2018-03-27T21:53:47.257Z,10.23
2018-03-27T21:56:14.754Z,9.63
2018-03-27T21:58:42.258Z,10.50
2018-03-27T22:01:10.499Z,9.80
2018-03-27T22:03:40.577Z,10.80
2018-03-27T22:06:08.063Z,10.97
2018-03-27T22:08:35.532Z,11.20
2018-03-27T22:11:03.035Z,12.03
2018-03-27T22:13:30.510Z,12.47
2018-03-27T22:15:58.030Z,12.53
2018-03-27T22:18:26.270Z,11.80
2018-03-27T22:20:53.822Z,11.70
2018-03-27T22:23:21.281Z,11.27
2018-03-27T22:25:48.762Z,11.33
2018-03-27T22:28:17.026Z,11.83
2018-03-27T22:30:44.513Z,12.10
2018-03-27T22:33:12.011Z,11.43
2018-03-27T22:35:39.478Z,11.40
2018-03-27T22:38:06.997Z,12.47
2018-03-27T22:40:34.466Z,14.20
2018-03-27T22:43:01.948Z,14.20
2018-03-27T22:45:29.419Z,14.87
2018-03-27T22:47:56.917Z,15.37
2018-03-27T22:50:24.404Z,17.23
2018-03-27T22:52:51.890Z,17.87
2018-03-27T22:55:19.355Z,18.13
2018-03-27T22:57:47.614Z,19.07
2018-03-27T23:00:15.083Z,20.67
2018-03-27T23:05:36.722Z,19.80
2018-03-27T23:08:04.954Z,21.17
2018-03-27T23:10:32.418Z,20.40
2018-03-27T23:12:59.907Z,20.20
2018-03-27T23:15:28.141Z,20.87
2018-03-27T23:17:55.638Z,21.00
2018-03-27T23:20:23.874Z,21.47
2018-03-27T23:22:51.358Z,22.27
2018-03-27T23:25:18.826Z,22.30
2018-03-27T23:27:47.103Z,21.13
2018-03-27T23:30:14.573Z,22.47
2018-03-27T23:32:42.063Z,23.27
2018-03-27T23:35:09.552Z,23.47
2018-03-27T23:37:37.042Z,23.47
2018-03-27T23:40:04.522Z,24.53
2018-03-27T23:42:31.994Z,24.93
2018-03-27T23:44:59.491Z,26.30
2018-03-27T23:47:27.727Z,25.90
2018-03-27T23:49:55.226Z,26.33
2018-03-27T23:52:23.471Z,25.77
2018-03-27T23:54:50.954Z,25.33
2018-03-27T23:57:19.202Z,28.70
2018-03-27T23:59:46.695Z,26.37
